createdAt,value
2022-12-09T00:02:25.768Z,62.55
2022-12-09T00:05:31.900Z,62.60
2022-12-09T00:08:38.493Z,62.42
2022-12-09T00:11:44.717Z,62.20
2022-12-09T00:14:50.387Z,62.07
2022-12-09T00:17:56.196Z,62.15
2022-12-09T00:21:11.608Z,62.24
2022-12-09T00:24:17.667Z,62.42
2022-12-09T00:27:23.627Z,62.48
2022-12-09T00:30:29.550Z,62.81
2022-12-09T00:33:36.616Z,62.65
2022-12-09T00:36:42.797Z,62.81
2022-12-09T00:39:48.853Z,62.65
2022-12-09T00:42:54.648Z,62.59
2022-12-09T00:46:00.649Z,62.27
2022-12-09T00:49:07.593Z,62.25
2022-12-09T00:52:13.264Z,62.39
2022-12-09T00:55:19.474Z,62.64
2022-12-09T00:58:23.628Z,62.62
2022-12-09T01:01:30.364Z,63.07
2022-12-09T01:04:36.491Z,62.97
2022-12-09T01:07:42.305Z,63.08
2022-12-09T01:10:49.085Z,62.99
2022-12-09T01:13:57.930Z,63.04
2022-12-09T01:17:03.851Z,62.94
2022-12-09T01:20:12.649Z,63.49
2022-12-09T01:23:19.029Z,63.57
2022-12-09T01:26:23.394Z,63.43
2022-12-09T01:29:29.375Z,63.57
2022-12-09T01:32:35.152Z,63.32
2022-12-09T01:35:44.044Z,63.30
2022-12-09T01:38:50.232Z,63.33
2022-12-09T01:41:56.095Z,63.24
2022-12-09T01:45:44.253Z,63.08
2022-12-09T01:48:50.095Z,63.14
2022-12-09T01:52:03.924Z,63.38
2022-12-09T01:55:11.149Z,63.35
2022-12-09T01:58:17.908Z,63.23
2022-12-09T02:01:24.471Z,63.10
2022-12-09T02:04:33.666Z,63.09
2022-12-09T02:07:39.656Z,63.14
2022-12-09T02:11:07.831Z,63.33
2022-12-09T02:14:19.621Z,63.52
2022-12-09T02:17:38.523Z,63.36
2022-12-09T02:20:49.869Z,63.44
2022-12-09T02:24:01.798Z,63.60
2022-12-09T02:27:16.567Z,63.44
2022-12-09T02:30:25.777Z,63.27
2022-12-09T02:33:54.344Z,63.28
2022-12-09T02:37:17.620Z,63.25
2022-12-09T02:40:28.160Z,63.27
2022-12-09T02:43:38.568Z,63.62
2022-12-09T02:46:45.946Z,63.64
2022-12-09T02:49:56.782Z,63.46
2022-12-09T02:53:07.731Z,63.34
2022-12-09T02:56:15.869Z,63.58
2022-12-09T02:59:22.186Z,63.51
2022-12-09T03:02:33.371Z,63.45
2022-12-09T03:05:47.970Z,63.62
2022-12-09T03:08:58.896Z,63.63
2022-12-09T03:12:10.348Z,63.18
2022-12-09T03:15:20.525Z,63.10
2022-12-09T03:18:30.705Z,63.19
2022-12-09T03:21:42.223Z,63.32
2022-12-09T03:24:53.040Z,63.47
2022-12-09T03:28:01.982Z,63.46
2022-12-09T03:31:13.884Z,63.26
2022-12-09T03:34:24.140Z,62.88
2022-12-09T03:37:31.576Z,62.87
2022-12-09T03:40:40.149Z,62.73
2022-12-09T03:43:52.461Z,62.35
2022-12-09T03:46:58.887Z,62.42
2022-12-09T03:50:03.218Z,62.74
2022-12-09T03:53:14.331Z,62.94
2022-12-09T03:56:23.171Z,62.50
2022-12-09T03:59:34.749Z,62.17
2022-12-09T04:02:40.957Z,61.97
2022-12-09T04:05:47.812Z,62.65
2022-12-09T04:08:59.331Z,62.82
2022-12-09T04:12:08.921Z,62.82
2022-12-09T04:15:15.166Z,62.67
2022-12-09T04:18:21.589Z,62.52
2022-12-09T04:21:27.433Z,62.61
2022-12-09T04:24:33.715Z,63.56
2022-12-09T04:27:39.522Z,63.59
2022-12-09T04:30:48.480Z,63.36
2022-12-09T04:33:54.995Z,62.76
2022-12-09T04:37:01.010Z,62.61
2022-12-09T04:40:08.547Z,62.76
2022-12-09T04:43:14.740Z,62.96
2022-12-09T04:46:21.075Z,62.79
2022-12-09T04:49:26.905Z,62.75
2022-12-09T04:52:32.598Z,62.50
2022-12-09T04:55:38.388Z,61.93
2022-12-09T04:58:45.173Z,61.79
2022-12-09T05:01:50.942Z,61.85
2022-12-09T05:04:56.835Z,61.75
2022-12-09T05:08:03.136Z,61.85
2022-12-09T05:11:10.172Z,62.12
2022-12-09T05:14:16.473Z,62.35
2022-12-09T05:17:22.673Z,62.48
2022-12-09T05:20:29.858Z,62.43
2022-12-09T05:23:36.916Z,62.41
2022-12-09T05:26:42.933Z,62.04
2022-12-09T05:29:48.825Z,62.38
2022-12-09T05:32:54.734Z,62.57
2022-12-09T05:36:00.776Z,62.54
2022-12-09T05:39:06.828Z,62.98
2022-12-09T05:42:12.732Z,63.37
2022-12-09T05:45:19.110Z,63.61
2022-12-09T05:48:23.581Z,63.76
2022-12-09T05:51:31.258Z,64.08
2022-12-09T05:54:37.026Z,64.12
2022-12-09T05:57:43.331Z,64.32
2022-12-09T06:00:49.206Z,64.06
2022-12-09T06:03:56.638Z,63.68
2022-12-09T06:07:02.841Z,63.54
2022-12-09T06:10:11.059Z,63.22
2022-12-09T06:13:17.680Z,62.77
2022-12-09T06:16:25.029Z,62.65
2022-12-09T06:19:31.257Z,62.85
2022-12-09T06:22:38.575Z,62.66
2022-12-09T06:25:47.276Z,62.62
2022-12-09T06:28:53.538Z,62.72
2022-12-09T06:31:59.547Z,62.88
2022-12-09T06:35:08.042Z,63.10
2022-12-09T06:38:14.180Z,62.84
2022-12-09T06:41:20.013Z,62.76
2022-12-09T06:44:26.314Z,62.76
2022-12-09T06:47:30.595Z,62.93
2022-12-09T06:50:37.923Z,63.29
2022-12-09T06:53:44.924Z,62.93
2022-12-09T06:56:50.822Z,63.29
2022-12-09T06:59:56.839Z,63.32
2022-12-09T07:03:02.796Z,63.41
2022-12-09T07:06:18.029Z,63.45
2022-12-09T07:09:24.616Z,63.52
2022-12-09T07:12:30.407Z,63.52
2022-12-09T07:15:36.404Z,63.61
2022-12-09T07:18:42.446Z,63.65
2022-12-09T07:21:47.859Z,63.83
2022-12-09T07:24:54.125Z,64.37
2022-12-09T07:28:00.253Z,64.43
2022-12-09T07:31:07.767Z,64.11
2022-12-09T07:34:14.447Z,64.03
2022-12-09T07:37:21.319Z,64.24
2022-12-09T07:40:27.223Z,64.62
2022-12-09T07:43:36.092Z,64.79
2022-12-09T07:46:42.000Z,64.86
2022-12-09T07:49:47.886Z,64.63
2022-12-09T07:52:54.301Z,64.52
2022-12-09T07:56:05.276Z,64.73
2022-12-09T07:59:12.233Z,64.93
2022-12-09T08:02:18.332Z,65.25
2022-12-09T08:05:24.530Z,65.72
2022-12-09T08:08:30.981Z,65.84
2022-12-09T08:11:38.018Z,65.81
2022-12-09T08:14:44.526Z,65.70
2022-12-09T08:17:50.881Z,65.63
2022-12-09T08:20:55.394Z,65.72
2022-12-09T08:24:03.253Z,65.87
2022-12-09T08:27:09.208Z,65.85
2022-12-09T08:30:16.866Z,66.00
2022-12-09T08:33:23.674Z,66.24
2022-12-09T08:36:31.182Z,66.37
2022-12-09T08:39:37.483Z,66.27
2022-12-09T08:42:41.933Z,66.06
2022-12-09T08:45:47.903Z,66.06
2022-12-09T08:48:53.954Z,65.75
2022-12-09T08:52:00.430Z,65.55
2022-12-09T08:55:07.800Z,65.37
2022-12-09T08:58:13.510Z,65.55
2022-12-09T09:01:21.215Z,65.80
2022-12-09T09:04:27.143Z,66.05
2022-12-09T09:07:34.734Z,66.08
2022-12-09T09:10:40.761Z,66.02
2022-12-09T09:13:48.827Z,65.49
2022-12-09T09:16:55.309Z,65.32
2022-12-09T09:19:59.556Z,65.42
2022-12-09T09:23:05.984Z,65.62
2022-12-09T09:26:15.240Z,65.48
2022-12-09T09:29:23.800Z,65.44
2022-12-09T09:32:29.788Z,65.52
2022-12-09T09:35:34.796Z,65.47
2022-12-09T09:38:41.032Z,65.61
2022-12-09T09:41:52.546Z,65.35
2022-12-09T09:44:58.957Z,64.80
2022-12-09T09:48:04.752Z,64.14
2022-12-09T09:51:13.092Z,64.00
2022-12-09T09:54:19.431Z,63.73
2022-12-09T09:57:27.037Z,63.24
2022-12-09T10:00:37.215Z,63.14
2022-12-09T10:03:52.688Z,62.88
2022-12-09T10:07:06.928Z,62.59
2022-12-09T10:10:27.312Z,62.79
2022-12-09T10:13:48.417Z,62.67
2022-12-09T10:17:05.903Z,62.69
2022-12-09T10:20:17.426Z,62.65
2022-12-09T10:23:24.535Z,62.66
2022-12-09T10:26:32.832Z,62.52
2022-12-09T10:29:51.470Z,62.37
2022-12-09T10:32:57.320Z,62.16
2022-12-09T10:36:04.244Z,62.09
2022-12-09T10:39:20.324Z,61.99
2022-12-09T10:42:44.817Z,61.93
2022-12-09T10:46:22.404Z,61.87
2022-12-09T10:49:23.863Z,61.64
2022-12-09T10:52:33.651Z,61.63
2022-12-09T10:55:42.696Z,61.71
2022-12-09T10:58:48.716Z,61.74
2022-12-09T11:01:57.574Z,61.93
2022-12-09T11:05:24.378Z,61.80
2022-12-09T11:08:31.456Z,61.58
2022-12-09T11:11:47.203Z,62.01
2022-12-09T11:14:55.633Z,62.28
2022-12-09T11:18:04.543Z,62.37
2022-12-09T11:21:32.575Z,62.62
2022-12-09T11:24:38.776Z,62.64
2022-12-09T11:27:50.796Z,62.44
2022-12-09T11:34:28.137Z,62.37
2022-12-09T11:37:35.323Z,62.49
2022-12-09T11:40:41.056Z,62.42
2022-12-09T11:43:51.704Z,62.31
2022-12-09T11:47:03.695Z,62.04
2022-12-09T11:50:20.415Z,61.74
2022-12-09T11:53:34.076Z,61.26
2022-12-09T11:56:51.096Z,61.07
2022-12-09T12:00:01.401Z,60.78
2022-12-09T12:03:14.668Z,60.43
2022-12-09T12:06:24.538Z,60.53
2022-12-09T12:09:36.853Z,60.34
2022-12-09T12:12:52.120Z,60.60
2022-12-09T12:16:05.870Z,60.71
2022-12-09T12:19:21.113Z,60.26
2022-12-09T12:22:54.282Z,60.02
2022-12-09T12:26:07.565Z,59.75
2022-12-09T12:29:27.087Z,59.65
2022-12-09T12:32:52.289Z,60.06
2022-12-09T12:36:19.472Z,59.95
2022-12-09T12:39:41.646Z,59.87
2022-12-09T12:43:30.506Z,60.56
2022-12-09T12:46:48.662Z,60.55
2022-12-09T12:50:14.221Z,59.84
2022-12-09T12:53:33.029Z,60.08
2022-12-09T12:56:43.768Z,60.47
2022-12-09T12:59:58.879Z,60.48
2022-12-09T13:03:18.767Z,60.22
2022-12-09T13:06:32.305Z,60.25
2022-12-09T13:09:43.776Z,60.44
2022-12-09T13:12:56.718Z,60.96
2022-12-09T13:16:07.689Z,60.43
2022-12-09T13:19:18.564Z,58.94
2022-12-09T13:22:28.175Z,58.17
2022-12-09T13:25:42.031Z,58.83
2022-12-09T13:28:54.932Z,60.44
2022-12-09T13:32:11.781Z,62.77
2022-12-09T13:35:25.421Z,64.53
2022-12-09T13:38:39.902Z,64.49
2022-12-09T13:42:06.777Z,63.50
2022-12-09T13:45:18.454Z,63.44
2022-12-09T13:48:54.900Z,62.52
2022-12-09T13:52:00.859Z,62.27
2022-12-09T13:55:18.595Z,62.52
2022-12-09T13:58:49.111Z,62.06
2022-12-09T14:01:57.014Z,62.05
2022-12-09T14:05:12.486Z,61.79
2022-12-09T14:08:24.166Z,61.72
2022-12-09T14:11:49.285Z,61.60
2022-12-09T14:14:56.211Z,61.62
2022-12-09T14:18:07.160Z,61.75
2022-12-09T14:21:31.136Z,61.22
2022-12-09T14:24:37.142Z,61.55
2022-12-09T14:28:19.348Z,62.32
2022-12-09T14:31:59.689Z,62.17
2022-12-09T14:35:21.219Z,61.54
2022-12-09T14:38:32.889Z,60.75
2022-12-09T14:41:47.467Z,60.66
2022-12-09T14:45:03.463Z,60.69
2022-12-09T14:48:17.606Z,60.30
2022-12-09T14:51:27.461Z,60.66
2022-12-09T14:54:36.141Z,60.36
2022-12-09T14:57:45.984Z,60.72
2022-12-09T15:01:02.208Z,60.65
2022-12-09T15:04:08.120Z,60.29
2022-12-09T15:07:17.034Z,60.44
2022-12-09T15:10:29.456Z,60.57
2022-12-09T15:13:38.793Z,60.61
2022-12-09T15:16:49.113Z,60.81
2022-12-09T15:20:12.346Z,61.00
2022-12-09T15:23:21.256Z,61.19
2022-12-09T15:26:29.495Z,61.56
2022-12-09T15:29:35.940Z,61.87
2022-12-09T15:32:41.962Z,61.78
2022-12-09T15:35:53.756Z,61.98
2022-12-09T15:39:02.889Z,61.97
2022-12-09T15:42:11.870Z,62.13
2022-12-09T15:45:20.958Z,62.80
2022-12-09T15:48:33.471Z,63.48
2022-12-09T15:51:42.496Z,63.90
2022-12-09T15:54:49.068Z,64.50
2022-12-09T15:57:57.702Z,64.70
2022-12-09T16:01:03.821Z,64.57
2022-12-09T16:04:11.722Z,64.96
2022-12-09T16:07:20.856Z,65.30
2022-12-09T16:10:27.881Z,65.43
2022-12-09T16:13:33.837Z,65.67
2022-12-09T16:16:44.356Z,65.74
2022-12-09T16:19:50.055Z,65.78
2022-12-09T16:22:57.047Z,65.66
2022-12-09T16:26:07.377Z,65.71
2022-12-09T16:29:23.089Z,65.98
2022-12-09T16:32:31.648Z,66.77
2022-12-09T16:35:41.027Z,67.10
2022-12-09T16:39:20.491Z,66.97
2022-12-09T16:42:30.487Z,66.65
2022-12-09T16:45:38.719Z,66.67
2022-12-09T16:48:44.413Z,66.91
2022-12-09T16:51:50.166Z,67.12
2022-12-09T16:54:55.815Z,67.54
2022-12-09T16:58:02.502Z,67.64
2022-12-09T17:01:13.747Z,68.00
2022-12-09T17:04:23.107Z,68.27
2022-12-09T17:07:28.728Z,68.49
2022-12-09T17:10:34.315Z,68.80
2022-12-09T17:13:40.474Z,68.89
2022-12-09T17:16:46.282Z,68.74
2022-12-09T17:19:52.294Z,68.86
2022-12-09T17:22:57.940Z,68.82
2022-12-09T17:26:05.560Z,68.87
2022-12-09T17:29:11.195Z,69.07
2022-12-09T17:32:17.059Z,69.18
2022-12-09T17:35:22.703Z,69.24
2022-12-09T17:38:30.608Z,69.23
2022-12-09T17:41:36.258Z,69.26
2022-12-09T17:44:41.912Z,69.36
2022-12-09T17:47:49.959Z,68.71
2022-12-09T17:50:56.589Z,68.64
2022-12-09T17:54:02.246Z,68.59
2022-12-09T17:57:08.002Z,68.95
2022-12-09T18:00:16.774Z,68.97
2022-12-09T18:03:39.400Z,68.77
2022-12-09T18:06:48.634Z,68.47
2022-12-09T18:09:54.758Z,68.44
2022-12-09T18:12:58.989Z,68.68
2022-12-09T18:16:08.373Z,68.99
2022-12-09T18:19:17.523Z,68.94
2022-12-09T18:22:23.076Z,69.31
2022-12-09T18:25:28.765Z,68.99
2022-12-09T18:28:34.415Z,69.06
2022-12-09T18:31:40.196Z,69.20
2022-12-09T18:34:46.548Z,69.21
2022-12-09T18:37:50.803Z,69.31
2022-12-09T18:41:02.347Z,69.35
2022-12-09T18:44:09.393Z,69.13
2022-12-09T18:47:15.085Z,69.25
2022-12-09T18:50:20.737Z,68.96
2022-12-09T18:53:27.106Z,68.81
2022-12-09T18:56:32.187Z,68.65
2022-12-09T18:59:37.732Z,68.71
2022-12-09T19:02:43.432Z,68.90
2022-12-09T19:05:49.040Z,68.87
2022-12-09T19:08:57.060Z,69.26
2022-12-09T19:12:37.807Z,68.96
2022-12-09T19:15:30.091Z,68.55
2022-12-09T19:18:36.961Z,68.49
2022-12-09T19:21:42.750Z,68.43
2022-12-09T19:24:48.404Z,68.14
2022-12-09T19:27:55.574Z,68.03
2022-12-09T19:31:01.272Z,67.91
2022-12-09T19:34:09.555Z,67.87
2022-12-09T19:37:15.208Z,67.74
2022-12-09T19:40:21.095Z,67.72
2022-12-09T19:43:28.246Z,67.89
2022-12-09T19:46:35.371Z,68.07
2022-12-09T19:49:43.549Z,68.17
2022-12-09T19:52:49.711Z,68.20
2022-12-09T19:55:56.082Z,68.16
2022-12-09T19:59:02.755Z,68.14
2022-12-09T20:02:12.159Z,67.94
2022-12-09T20:05:18.595Z,67.90
2022-12-09T20:08:25.296Z,68.14
2022-12-09T20:11:34.107Z,67.87
2022-12-09T20:14:41.364Z,67.89
2022-12-09T20:17:47.009Z,67.87
2022-12-09T20:20:52.840Z,67.93
2022-12-09T20:24:02.197Z,68.14
2022-12-09T20:27:08.266Z,68.04
2022-12-09T20:30:15.180Z,67.84
2022-12-09T20:33:21.417Z,67.62
2022-12-09T20:36:29.317Z,67.70
2022-12-09T20:39:36.220Z,67.75
2022-12-09T20:42:41.953Z,67.44
2022-12-09T20:45:47.626Z,67.48
2022-12-09T20:48:53.664Z,67.33
2022-12-09T20:51:59.826Z,67.26
2022-12-09T20:55:06.834Z,67.16
2022-12-09T20:58:12.464Z,66.94
2022-12-09T21:01:21.572Z,66.79
2022-12-09T21:04:27.352Z,66.71
2022-12-09T21:07:33.000Z,66.57
2022-12-09T21:10:38.652Z,66.56
2022-12-09T21:13:47.165Z,66.45
2022-12-09T21:16:53.083Z,66.39
2022-12-09T21:19:58.782Z,66.24
2022-12-09T21:23:32.807Z,66.22
2022-12-09T21:26:31.181Z,66.16
2022-12-09T21:29:37.887Z,66.24
2022-12-09T21:32:43.508Z,66.29
2022-12-09T21:35:49.159Z,66.33
2022-12-09T21:38:55.522Z,66.28
2022-12-09T21:41:59.745Z,66.24
2022-12-09T21:45:06.559Z,66.43
2022-12-09T21:48:12.687Z,66.28
2022-12-09T21:51:18.742Z,66.15
2022-12-09T21:54:24.448Z,66.11
2022-12-09T21:57:30.359Z,66.18
2022-12-09T22:00:36.011Z,66.09
2022-12-09T22:03:41.691Z,66.04
2022-12-09T22:06:50.284Z,66.13
2022-12-09T22:09:55.940Z,66.03
2022-12-09T22:13:01.655Z,65.99
2022-12-09T22:16:10.601Z,65.97
2022-12-09T22:19:19.751Z,65.90
2022-12-09T22:22:26.017Z,65.83
2022-12-09T22:25:31.805Z,65.67
2022-12-09T22:28:38.546Z,65.74
2022-12-09T22:31:44.918Z,65.74
2022-12-09T22:34:48.974Z,65.82
2022-12-09T22:37:54.515Z,66.04
2022-12-09T22:41:03.197Z,66.05
2022-12-09T22:44:08.855Z,66.00
2022-12-09T22:47:14.507Z,66.49
2022-12-09T22:50:20.160Z,66.46
2022-12-09T22:53:25.749Z,66.27
2022-12-09T22:56:31.771Z,66.66
2022-12-09T22:59:42.811Z,66.39
2022-12-09T23:02:48.870Z,66.08
2022-12-09T23:05:55.280Z,66.04
2022-12-09T23:09:00.937Z,65.95
2022-12-09T23:12:07.340Z,65.93
2022-12-09T23:15:13.957Z,66.13
2022-12-09T23:18:19.626Z,65.98
2022-12-09T23:21:27.015Z,65.74
2022-12-09T23:24:32.671Z,65.83
2022-12-09T23:27:38.291Z,65.99
2022-12-09T23:30:44.016Z,66.26
2022-12-09T23:33:51.334Z,66.19
2022-12-09T23:36:57.121Z,66.18
2022-12-09T23:40:02.774Z,65.99
2022-12-09T23:43:08.424Z,65.93
2022-12-09T23:46:16.343Z,65.89
2022-12-09T23:49:22.198Z,65.89
2022-12-09T23:52:27.837Z,65.93
2022-12-09T23:55:33.456Z,66.11
2022-12-09T23:58:39.140Z,66.06
